createdAt,value
2023-11-24T00:00:31.596Z,3.40
2023-11-24T00:05:34.760Z,3.40
2023-11-24T00:10:38.481Z,4.17
2023-11-24T00:15:44.333Z,4.20
2023-11-24T00:20:48.819Z,2.53
2023-11-24T00:25:52.328Z,2.33
2023-11-24T00:30:56.817Z,2.20
2023-11-24T00:36:02.000Z,2.53
2023-11-24T00:41:06.021Z,2.00
2023-11-24T00:46:11.883Z,2.37
2023-11-24T00:51:16.923Z,2.67
2023-11-24T00:56:20.225Z,2.50
2023-11-24T01:01:25.070Z,2.77
2023-11-24T01:06:28.574Z,6.77
2023-11-24T01:11:31.862Z,2.03
2023-11-24T01:16:36.635Z,2.40
2023-11-24T01:21:40.522Z,3.63
2023-11-24T01:26:43.998Z,4.57
2023-11-24T01:31:48.516Z,5.37
2023-11-24T01:36:52.112Z,4.60
2023-11-24T01:41:55.614Z,3.87
2023-11-24T01:47:00.346Z,5.77
2023-11-24T01:52:06.173Z,4.80
2023-11-24T01:57:11.144Z,4.97
2023-11-24T02:02:16.601Z,4.87
2023-11-24T02:07:19.849Z,8.13
2023-11-24T02:12:24.215Z,5.10
2023-11-24T02:17:38.321Z,5.73
2023-11-24T02:22:44.176Z,8.33
2023-11-24T02:27:47.693Z,9.80
2023-11-24T02:32:51.236Z,11.10
2023-11-24T02:37:56.161Z,9.03
2023-11-24T02:42:59.332Z,8.87
2023-11-24T02:48:02.526Z,8.40
2023-11-24T02:53:06.993Z,5.80
2023-11-24T02:58:10.246Z,12.17
2023-11-24T03:03:13.804Z,8.10
2023-11-24T03:08:18.357Z,6.97
2023-11-24T03:13:21.436Z,9.27
2023-11-24T03:18:25.283Z,9.03
2023-11-24T03:23:29.740Z,8.13
2023-11-24T03:28:35.572Z,9.03
2023-11-24T03:33:38.746Z,7.63
2023-11-24T03:38:43.613Z,7.07
2023-11-24T03:43:47.108Z,5.73
2023-11-24T03:48:50.373Z,5.23
2023-11-24T03:53:55.323Z,5.83
2023-11-24T03:58:58.431Z,6.53
2023-11-24T04:04:01.643Z,7.10
2023-11-24T04:09:07.208Z,3.47
2023-11-24T04:14:10.393Z,4.13
2023-11-24T04:19:13.636Z,4.30
2023-11-24T04:24:18.086Z,6.33
2023-11-24T04:29:22.683Z,4.63
2023-11-24T04:34:26.338Z,5.77
2023-11-24T04:39:31.181Z,4.67
2023-11-24T04:44:34.880Z,6.23
2023-11-24T04:49:37.980Z,5.13
2023-11-24T04:54:42.877Z,8.90
2023-11-24T04:59:46.003Z,6.57
2023-11-24T05:04:49.434Z,11.03
2023-11-24T05:09:53.952Z,6.47
2023-11-24T05:14:58.508Z,7.33
2023-11-24T05:20:02.035Z,8.17
2023-11-24T05:25:08.098Z,10.07
2023-11-24T05:30:12.969Z,7.60
2023-11-24T05:35:17.283Z,7.83
2023-11-24T05:40:21.753Z,7.17
2023-11-24T05:45:24.995Z,9.90
2023-11-24T05:50:28.068Z,10.07
2023-11-24T05:55:32.848Z,7.63
2023-11-24T06:00:36.834Z,8.63
2023-11-24T06:05:40.259Z,7.13
2023-11-24T06:10:44.742Z,6.13
2023-11-24T06:15:47.928Z,9.17
2023-11-24T06:20:51.042Z,9.70
2023-11-24T06:25:55.494Z,9.83
2023-11-24T06:30:58.656Z,10.83
2023-11-24T06:36:02.461Z,8.03
2023-11-24T06:41:09.569Z,11.60
2023-11-24T06:46:13.529Z,11.83
2023-11-24T06:51:16.781Z,13.47
2023-11-24T06:56:21.254Z,12.50
2023-11-24T07:01:33.892Z,10.90
2023-11-24T07:06:37.344Z,14.13
2023-11-24T07:11:43.183Z,8.17
2023-11-24T07:16:46.846Z,8.30
2023-11-24T07:21:49.992Z,7.60
2023-11-24T07:26:55.970Z,7.87
2023-11-24T07:31:59.415Z,10.47
2023-11-24T07:37:03.138Z,11.47
2023-11-24T07:42:07.730Z,7.63
2023-11-24T07:47:15.580Z,8.67
2023-11-24T07:52:18.676Z,11.80
2023-11-24T07:57:26.054Z,8.80
2023-11-24T08:02:29.998Z,6.27
2023-11-24T08:07:33.845Z,7.93
2023-11-24T08:12:38.362Z,5.97
2023-11-24T08:17:42.110Z,5.87
2023-11-24T08:22:45.703Z,4.83
2023-11-24T08:27:50.626Z,5.70
2023-11-24T08:32:54.317Z,4.67
2023-11-24T08:37:57.756Z,4.47
2023-11-24T08:43:02.783Z,3.63
2023-11-24T08:48:06.768Z,5.10
2023-11-24T08:53:09.909Z,4.20
2023-11-24T08:58:16.297Z,4.13
2023-11-24T09:03:19.903Z,4.63
2023-11-24T09:08:22.989Z,3.73
2023-11-24T09:13:28.358Z,4.77
2023-11-24T09:18:32.263Z,3.00
2023-11-24T09:23:36.240Z,5.73
2023-11-24T09:28:40.736Z,2.70
2023-11-24T09:33:43.835Z,4.07
2023-11-24T09:38:49.754Z,5.10
2023-11-24T09:43:55.157Z,3.37
2023-11-24T09:49:00.092Z,3.87
2023-11-24T09:54:04.841Z,2.43
2023-11-24T09:59:11.110Z,2.30
2023-11-24T10:04:16.068Z,4.60
2023-11-24T10:09:26.614Z,2.60
2023-11-24T10:14:32.216Z,1.93
2023-11-24T10:19:37.356Z,2.13
2023-11-24T10:24:40.981Z,4.17
2023-11-24T10:29:45.722Z,1.80
2023-11-24T10:34:48.945Z,1.33
2023-11-24T10:39:55.769Z,1.37
2023-11-24T10:45:06.727Z,3.20
2023-11-24T10:50:14.207Z,3.67
2023-11-24T10:55:17.672Z,1.93
2023-11-24T11:00:23.457Z,1.50
2023-11-24T11:05:48.060Z,1.50
2023-11-24T11:11:13.671Z,1.90
2023-11-24T11:16:21.038Z,1.37
2023-11-24T11:21:39.003Z,1.67
2023-11-24T11:26:49.996Z,2.73
2023-11-24T11:31:56.903Z,3.53
2023-11-24T11:37:12.260Z,2.07
2023-11-24T11:42:15.906Z,4.03
2023-11-24T11:47:22.983Z,3.57
2023-11-24T11:52:29.286Z,1.80
2023-11-24T11:57:32.615Z,2.07
2023-11-24T12:02:38.051Z,1.53
2023-11-24T12:07:41.597Z,2.40
2023-11-24T12:12:45.836Z,2.40
2023-11-24T12:17:50.578Z,2.57
2023-11-24T12:22:54.136Z,4.53
2023-11-24T12:27:58.839Z,3.13
2023-11-24T12:33:05.003Z,2.97
2023-11-24T12:38:08.144Z,2.13
2023-11-24T12:43:13.266Z,2.10
2023-11-24T12:48:21.126Z,2.30
2023-11-24T12:53:25.264Z,4.70
2023-11-24T12:58:28.793Z,2.90
2023-11-24T13:03:33.254Z,1.60
2023-11-24T13:08:36.493Z,2.10
2023-11-24T13:13:39.596Z,2.07
2023-11-24T13:18:44.624Z,2.13
2023-11-24T13:23:47.759Z,2.63
2023-11-24T13:28:52.310Z,1.13
2023-11-24T13:33:57.010Z,0.80
2023-11-24T13:39:01.286Z,1.43
2023-11-24T13:44:05.230Z,1.03
2023-11-24T13:49:10.594Z,1.43
2023-11-24T13:54:15.051Z,3.00
2023-11-24T13:59:18.557Z,1.17
2023-11-24T14:04:23.402Z,2.77
2023-11-24T14:09:32.629Z,4.07
2023-11-24T14:14:36.006Z,2.23
2023-11-24T14:19:40.713Z,3.37
2023-11-24T14:24:43.971Z,2.60
2023-11-24T14:29:47.088Z,3.20
2023-11-24T14:34:52.373Z,3.10
2023-11-24T14:39:55.903Z,2.33
2023-11-24T14:44:59.952Z,2.87
2023-11-24T14:50:06.458Z,4.67
2023-11-24T14:55:12.980Z,4.47
2023-11-24T15:00:30.481Z,2.93
2023-11-24T15:05:35.456Z,4.40
2023-11-24T15:10:39.083Z,4.03
2023-11-24T15:15:44.356Z,4.73
2023-11-24T15:20:49.606Z,4.23
2023-11-24T15:25:54.025Z,3.63
2023-11-24T15:30:57.950Z,3.77
2023-11-24T15:36:05.234Z,2.90
2023-11-24T15:41:08.394Z,4.93
2023-11-24T15:46:19.432Z,3.57
2023-11-24T15:51:23.963Z,2.50
2023-11-24T15:56:29.398Z,6.17
2023-11-24T16:01:38.040Z,5.00
2023-11-24T16:06:46.718Z,6.17
2023-11-24T16:12:01.826Z,6.10
2023-11-24T16:17:06.034Z,5.73
2023-11-24T16:22:15.801Z,5.90
2023-11-24T16:27:19.953Z,2.60
2023-11-24T16:32:23.474Z,1.40
2023-11-24T16:37:28.769Z,2.17
2023-11-24T16:42:32.466Z,1.73
2023-11-24T16:47:36.199Z,2.53
2023-11-24T16:52:47.363Z,2.70
2023-11-24T16:57:51.449Z,2.57
2023-11-24T17:02:54.668Z,2.30
2023-11-24T17:07:59.734Z,2.93
2023-11-24T17:13:05.750Z,4.13
2023-11-24T17:18:11.201Z,1.93
2023-11-24T17:23:17.455Z,2.93
2023-11-24T17:28:21.667Z,4.23
2023-11-24T17:33:24.794Z,3.93
2023-11-24T17:38:29.892Z,2.93
2023-11-24T17:43:33.046Z,4.87
2023-11-24T17:48:37.308Z,4.07
2023-11-24T17:53:44.182Z,5.00
2023-11-24T17:58:47.487Z,4.43
2023-11-24T18:03:50.754Z,4.17
2023-11-24T18:08:57.782Z,5.10
2023-11-24T18:14:01.633Z,3.37
2023-11-24T18:19:05.285Z,4.67
2023-11-24T18:24:10.097Z,6.77
2023-11-24T18:29:15.003Z,5.27
2023-11-24T18:34:18.211Z,4.87
2023-11-24T18:39:22.656Z,6.50
2023-11-24T18:44:27.511Z,4.40
2023-11-24T18:49:31.065Z,4.87
2023-11-24T18:54:35.623Z,4.27
2023-11-24T18:59:38.765Z,3.67
2023-11-24T19:04:41.919Z,3.87
2023-11-24T19:09:47.359Z,3.87
2023-11-24T19:14:50.835Z,4.03
2023-11-24T19:19:53.923Z,3.47
2023-11-24T19:24:58.529Z,2.47
2023-11-24T19:30:01.656Z,6.00
2023-11-24T19:35:07.403Z,3.70
2023-11-24T19:40:13.699Z,4.17
2023-11-24T19:45:17.969Z,3.13
2023-11-24T19:50:21.509Z,3.27
2023-11-24T19:55:26.273Z,1.40
2023-11-24T20:00:29.438Z,3.30
2023-11-24T20:05:32.580Z,6.57
2023-11-24T20:10:39.445Z,4.00
2023-11-24T20:15:44.905Z,3.43
2023-11-24T20:20:48.303Z,2.60
2023-11-24T20:25:54.099Z,3.23
2023-11-24T20:30:57.901Z,2.57
2023-11-24T20:36:01.009Z,2.50
2023-11-24T20:41:06.002Z,3.80
2023-11-24T20:46:09.279Z,3.30
2023-11-24T20:51:13.720Z,6.13
2023-11-24T20:56:18.263Z,5.93
2023-11-24T21:01:22.740Z,4.33
2023-11-24T21:06:25.964Z,5.30
2023-11-24T21:11:31.540Z,2.53
2023-11-24T21:16:34.796Z,1.10
2023-11-24T21:21:37.917Z,1.70
2023-11-24T21:26:43.142Z,1.23
2023-11-24T21:31:46.505Z,2.50
2023-11-24T21:36:50.140Z,2.67
2023-11-24T21:41:54.624Z,3.50
2023-11-24T21:46:59.404Z,2.70
2023-11-24T21:52:02.785Z,3.67
2023-11-24T21:57:07.350Z,3.90
2023-11-24T22:02:10.648Z,3.30
2023-11-24T22:07:14.897Z,3.27
2023-11-24T22:12:19.354Z,2.20
2023-11-24T22:17:22.862Z,4.00
2023-11-24T22:22:26.474Z,2.70
2023-11-24T22:27:31.473Z,2.13
2023-11-24T22:32:36.113Z,2.13
2023-11-24T22:37:39.959Z,4.43
2023-11-24T22:42:44.412Z,2.30
2023-11-24T22:47:48.066Z,2.07
2023-11-24T22:52:51.249Z,1.77
2023-11-24T22:57:56.089Z,1.03
2023-11-24T23:03:00.708Z,1.00
2023-11-24T23:08:04.649Z,1.40
2023-11-24T23:13:09.485Z,2.00
2023-11-24T23:18:13.228Z,1.00
2023-11-24T23:23:16.348Z,1.53
2023-11-24T23:28:21.482Z,1.83
2023-11-24T23:33:24.651Z,1.27
2023-11-24T23:38:28.148Z,1.83
2023-11-24T23:43:33.360Z,1.40
2023-11-24T23:48:36.833Z,1.33
2023-11-24T23:53:40.644Z,2.90
2023-11-24T23:58:45.637Z,1.90
